Terminal Aerodrome Forecast
Issued by NWS Mobile, AL

Home | Current Version | Previous Version | Text Only | Print | Product List | Glossary On
Versions: 1 2 3 4 5 6 7 8 9 10 11 12 13 14 15 16 17 18 19 20 21 22 23 24 25 26 27 28 29
000
FTUS44 KMOB 260549
TAFMOB
TAF
KMOB 260549Z 2606/2706 14014KT P6SM SCT004
     FM260900 14005KT 5SM BR VCSH BKN005
     FM261400 15015G22KT P6SM VCTS SCT025CB BKN035 PROB30 2615/2621
      3SM TSRA BKN025CB
     FM270000 15007KT P6SM BKN035 OVC120 PROB30 2700/2706 5SM -TSRA
      BKN025CB=

USA.gov is the U.S. government's official web portal to all federal, state and local government web resources and services.